Time;durP1;ratioP1;P1;durP2;ratioP2;P2;SDS_P1;SDS_P2;PMS_P1;PMS_P2;Temp;Humidity;BMP_temperature;BMP_pressure;BME280_temperature;BME280_humidity;BME280_pressure;Samples;Min_cycle;Max_cycle;Signal;HPM_P1;HPM_P2
2023/06/03 04:44:53;;;;;;;14.07;9.13;;;;;;;;;;5138828;27;20633;-84
2023/06/03 04:54:28;;;;;;;15.30;10.60;;;11.30;99.90;;;;;;5151024;27;20346;-83
2023/06/03 05:01:48;;;;;;;16.10;11.17;;;11.40;99.90;;;;;;5140422;27;20271;-83
2023/06/03 05:09:45;;;;;;;15.77;10.67;;;;;;;;;;5137461;27;20278;-83
2023/06/03 05:17:17;;;;;;;17.50;10.30;;;11.80;99.90;;;;;;5134917;27;20772;-79
2023/06/03 05:23:39;;;;;;;17.17;10.43;;;;;;;;;;5129875;27;20275;-78
2023/06/03 05:30:42;;;;;;;16.33;9.40;;;11.90;99.90;;;;;;5119733;27;20756;-79
2023/06/03 05:37:23;;;;;;;17.93;11.03;;;12.00;99.90;;;;;;5136282;27;20298;-81
2023/06/03 05:42:49;;;;;;;14.27;9.33;;;;;;;;;;5139346;27;20268;-79
2023/06/03 05:48:48;;;;;;;14.70;9.50;;;;;;;;;;5135689;27;20819;-79
2023/06/03 05:54:35;;;;;;;15.90;9.13;;;12.60;99.90;;;;;;5136608;27;20720;-79
2023/06/03 05:59:12;;;;;;;16.30;9.60;;;12.80;99.90;;;;;;5136716;27;20274;-83
2023/06/03 06:04:10;;;;;;;16.27;9.47;;;12.80;99.90;;;;;;5121097;27;20277;-79
2023/06/03 06:09:03;;;;;;;15.87;9.27;;;13.00;99.90;;;;;;5114026;27;20285;-82
2023/06/03 06:13:56;;;;;;;13.50;8.53;;;13.20;99.90;;;;;;5123931;27;20285;-81
2023/06/03 06:18:48;;;;;;;15.60;8.23;;;13.40;99.90;;;;;;5124731;27;20277;-82
2023/06/03 06:23:40;;;;;;;15.30;8.40;;;13.60;99.90;;;;;;5110922;27;20292;-85
2023/06/03 06:27:31;;;;;;;9.90;7.73;;;13.60;99.90;;;;;;5100173;27;20302;-82
2023/06/03 06:31:26;;;;;;;10.00;7.43;;;13.80;99.90;;;;;;5123543;27;20560;-82
2023/06/03 06:35:20;;;;;;;14.67;7.77;;;13.90;99.90;;;;;;5114302;27;20283;-83
2023/06/03 06:39:47;;;;;;;15.13;7.93;;;14.10;99.90;;;;;;5157608;27;20289;-83
2023/06/03 06:43:16;;;;;;;16.03;8.07;;;14.30;99.90;;;;;;5130446;27;20285;-81
2023/06/03 06:47:20;;;;;;;13.60;7.53;;;14.50;99.90;;;;;;5098380;27;20296;-81
2023/06/03 06:51:12;;;;;;;11.80;7.77;;;14.60;99.90;;;;;;5126479;27;20281;-82
2023/06/03 06:55:33;;;;;;;9.43;6.67;;;14.70;99.90;;;;;;5154644;27;20301;-82
2023/06/03 06:59:09;;;;;;;10.40;7.10;;;14.80;99.90;;;;;;5125008;27;20315;-82
2023/06/03 07:03:09;;;;;;;10.50;7.17;;;15.00;99.90;;;;;;5105751;27;20655;-82
2023/06/03 07:07:07;;;;;;;9.57;6.97;;;15.10;99.90;;;;;;5123092;27;20288;-81
2023/06/03 07:11:06;;;;;;;12.50;6.93;;;15.30;99.90;;;;;;5110655;27;20304;-80
2023/06/03 07:15:05;;;;;;;11.33;7.40;;;15.50;99.90;;;;;;5112452;27;20286;-82
2023/06/03 07:20:07;;;;;;;10.83;7.20;;;15.70;99.90;;;;;;5120095;27;20754;-79
2023/06/03 07:22:33;;;;;;;10.30;7.23;;;15.70;99.90;;;;;;5093978;28;20272;-79
2023/06/03 07:27:06;;;;;;;11.87;7.30;;;16.00;99.90;;;;;;5116468;27;20300;-81
2023/06/03 07:29:38;;;;;;;8.60;7.00;;;16.00;99.90;;;;;;5114236;28;20185;-81
2023/06/03 07:32:07;;;;;;;13.37;7.13;;;16.10;99.90;;;;;;5089158;28;20187;-81
2023/06/03 07:34:34;;;;;;;10.00;6.80;;;16.10;99.90;;;;;;5093251;28;20193;-82
2023/06/03 07:37:01;;;;;;;12.30;7.63;;;16.30;99.90;;;;;;5089503;28;20205;-84
2023/06/03 07:39:27;;;;;;;12.37;6.60;;;16.40;99.90;;;;;;5094443;28;20183;-81
2023/06/03 07:41:53;;;;;;;10.17;6.33;;;;;;;;;;5101506;28;20223;-81
2023/06/03 07:44:42;;;;;;;12.80;6.67;;;16.60;99.90;;;;;;5097739;28;20176;-77
2023/06/03 07:47:08;;;;;;;10.93;7.03;;;16.90;99.90;;;;;;5095256;28;20209;-81
2023/06/03 07:49:34;;;;;;;9.83;6.70;;;17.00;99.90;;;;;;5092774;28;20198;-80
2023/06/03 07:51:59;;;;;;;10.67;7.43;;;17.00;99.90;;;;;;5094890;28;20188;-79
2023/06/03 07:54:28;;;;;;;8.73;7.03;;;17.20;99.90;;;;;;5098414;28;20190;-80
2023/06/03 07:56:55;;;;;;;17.23;7.23;;;17.40;99.90;;;;;;5096188;28;20248;-81
2023/06/03 07:59:21;;;;;;;13.07;7.00;;;17.50;99.90;;;;;;5091556;28;20195;-80
2023/06/03 08:01:50;;;;;;;12.53;6.80;;;17.70;99.90;;;;;;5102528;28;20528;-81
2023/06/03 08:04:22;;;;;;;12.30;6.83;;;17.90;99.90;;;;;;5092827;28;20551;-79
2023/06/03 08:06:52;;;;;;;11.80;7.23;;;18.00;99.90;;;;;;5104757;28;21792;-82
2023/06/03 08:09:33;;;;;;;9.13;6.03;;;18.10;99.90;;;;;;5098913;28;20188;-80
2023/06/03 08:12:02;;;;;;;15.27;6.90;;;18.30;99.90;;;;;;5111607;28;20210;-81
2023/06/03 08:14:30;;;;;;;9.93;6.17;;;18.50;99.90;;;;;;5100233;28;20573;-79
2023/06/03 08:16:58;;;;;;;11.57;6.87;;;18.80;99.90;;;;;;5091247;28;20203;-81
2023/06/03 08:19:24;;;;;;;12.20;6.07;;;;;;;;;;5099044;28;20195;-80
2023/06/03 08:21:51;;;;;;;9.23;6.30;;;19.10;99.90;;;;;;5093424;28;20188;-82
2023/06/03 08:24:17;;;;;;;8.47;6.37;;;19.30;99.90;;;;;;5093160;28;20185;-80
2023/06/03 08:26:46;;;;;;;9.30;6.57;;;19.50;99.90;;;;;;5095382;28;20218;-81
2023/06/03 08:29:13;;;;;;;13.13;6.70;;;19.40;99.90;;;;;;5091019;28;20188;-80
2023/06/03 08:31:39;;;;;;;13.03;7.37;;;19.50;99.90;;;;;;5088417;28;20208;-81
2023/06/03 08:34:05;;;;;;;13.53;6.57;;;19.70;99.90;;;;;;5090953;28;20196;-81
2023/06/03 08:36:37;;;;;;;13.60;6.83;;;19.90;99.90;;;;;;5106706;28;20733;-82
2023/06/03 08:39:03;;;;;;;8.33;6.27;;;;;;;;;;5079190;28;20229;-81
2023/06/03 08:41:38;;;;;;;10.80;6.50;;;20.20;99.90;;;;;;5074647;28;20182;-82
2023/06/03 08:44:18;;;;;;;11.33;6.10;;;20.20;99.90;;;;;;5077892;28;20318;-80
2023/06/03 08:47:10;;;;;;;10.57;6.37;;;20.30;99.90;;;;;;5075760;28;20239;-80
2023/06/03 08:50:06;;;;;;;9.97;6.10;;;20.50;99.90;;;;;;5073309;28;20184;-82
2023/06/03 08:52:38;;;;;;;6.73;5.47;;;20.60;99.90;;;;;;5075697;28;20191;-81
2023/06/03 08:55:08;;;;;;;8.53;5.80;;;20.70;99.90;;;;;;5081078;28;20260;-83
2023/06/03 08:57:38;;;;;;;11.03;5.93;;;20.70;99.90;;;;;;5082361;28;20217;-84
2023/06/03 09:00:06;;;;;;;10.77;5.73;;;20.90;99.90;;;;;;5077529;28;21181;-81
2023/06/03 09:02:32;;;;;;;9.53;5.70;;;21.20;99.90;;;;;;5080679;28;20650;-81
2023/06/03 09:05:01;;;;;;;8.73;5.80;;;21.50;99.90;;;;;;5071797;28;20206;-83
2023/06/03 09:07:29;;;;;;;8.27;5.80;;;21.70;99.90;;;;;;5073436;28;20297;-83
2023/06/03 09:09:56;;;;;;;6.73;5.17;;;21.80;99.90;;;;;;5078941;28;20260;-84
2023/06/03 09:12:25;;;;;;;8.57;5.50;;;21.90;99.90;;;;;;5077217;28;20184;-82
2023/06/03 09:14:53;;;;;;;10.97;5.70;;;22.00;99.90;;;;;;5099950;28;20204;-82
2023/06/03 09:17:20;;;;;;;10.43;5.93;;;22.10;99.90;;;;;;5097436;28;20203;-82
2023/06/03 09:19:47;;;;;;;12.97;5.30;;;22.40;99.90;;;;;;5096335;28;20180;-83
2023/06/03 09:22:13;;;;;;;14.50;6.40;;;22.60;99.90;;;;;;5089128;28;20174;-83
2023/06/03 09:24:39;;;;;;;8.60;5.80;;;22.70;99.90;;;;;;5077631;28;20175;-83
2023/06/03 09:27:05;;;;;;;8.73;5.80;;;22.90;99.90;;;;;;5078954;28;20280;-82
2023/06/03 09:29:31;;;;;;;8.03;5.27;;;23.00;99.90;;;;;;5077001;28;20173;-83
2023/06/03 09:31:57;;;;;;;8.60;5.33;;;23.00;99.90;;;;;;5078335;28;20182;-82
2023/06/03 09:34:23;;;;;;;11.27;5.13;;;23.20;99.90;;;;;;5078276;28;20179;-83
2023/06/03 09:36:49;;;;;;;7.07;4.77;;;23.40;99.90;;;;;;5076783;28;20570;-83
2023/06/03 09:39:17;;;;;;;8.93;5.60;;;23.50;99.90;;;;;;5078745;28;20181;-82
2023/06/03 09:41:44;;;;;;;12.47;4.77;;;23.60;99.90;;;;;;5078777;28;20185;-81
2023/06/03 09:44:10;;;;;;;7.13;4.90;;;23.80;99.90;;;;;;5078287;28;20181;-82
2023/06/03 09:46:37;;;;;;;9.73;5.20;;;23.90;99.90;;;;;;5083283;28;20208;-82
2023/06/03 09:49:16;;;;;;;11.90;5.20;;;23.80;99.90;;;;;;5084546;28;20189;-80
2023/06/03 09:51:44;;;;;;;7.40;4.80;;;23.60;99.90;;;;;;5082129;28;20177;-85
2023/06/03 09:54:14;;;;;;;9.47;5.20;;;23.60;99.90;;;;;;5078639;28;20189;-85
2023/06/03 09:56:40;;;;;;;11.50;5.10;;;23.60;99.90;;;;;;5077796;28;20573;-85
2023/06/03 09:59:16;;;;;;;10.37;5.13;;;23.80;99.90;;;;;;5079323;28;20628;-84
2023/06/03 10:01:45;;;;;;;8.47;4.90;;;24.10;99.50;;;;;;5079162;28;20181;-85
2023/06/03 10:04:12;;;;;;;6.33;5.20;;;24.30;99.90;;;;;;5083419;28;20161;-80
2023/06/03 10:06:38;;;;;;;6.83;4.90;;;24.50;98.20;;;;;;5083228;28;20205;-81
2023/06/03 10:09:22;;;;;;;10.60;4.77;;;24.40;98.70;;;;;;5077446;28;20190;-81
2023/06/03 10:11:51;;;;;;;6.77;4.13;;;24.70;99.90;;;;;;5076253;28;20173;-82
2023/06/03 10:14:21;;;;;;;6.90;4.30;;;25.00;99.90;;;;;;5076699;28;20180;-83
2023/06/03 10:17:02;;;;;;;9.47;4.90;;;25.40;99.90;;;;;;5077463;28;20203;-83
2023/06/03 10:19:28;;;;;;;15.10;5.43;;;25.70;99.90;;;;;;5075619;28;20188;-83
2023/06/03 10:21:55;;;;;;;8.13;4.60;;;25.70;98.30;;;;;;5075927;28;20188;-83
2023/06/03 10:24:22;;;;;;;8.73;4.90;;;25.50;95.80;;;;;;5075143;28;20188;-83
2023/06/03 10:26:49;;;;;;;9.27;5.43;;;25.50;94.30;;;;;;5076339;28;20205;-84
2023/06/03 10:29:15;;;;;;;7.47;4.37;;;25.60;94.50;;;;;;5072624;28;20181;-83
2023/06/03 10:31:44;;;;;;;8.03;5.50;;;25.60;96.40;;;;;;5074866;28;20272;-84
2023/06/03 10:34:14;;;;;;;7.33;4.60;;;25.70;96.60;;;;;;5076472;28;20187;-86
2023/06/03 10:36:44;;;;;;;7.07;4.33;;;25.60;98.10;;;;;;5075471;28;20201;-85
2023/06/03 10:39:10;;;;;;;8.13;5.07;;;25.80;94.00;;;;;;5072168;28;20235;-85
2023/06/03 10:41:39;;;;;;;6.70;5.03;;;25.80;94.80;;;;;;5075957;28;20542;-85
2023/06/03 10:44:05;;;;;;;5.73;4.23;;;25.90;94.50;;;;;;5079430;28;20518;-83
2023/06/03 10:46:36;;;;;;;8.30;4.37;;;26.10;92.90;;;;;;5077465;28;20729;-80
2023/06/03 10:49:06;;;;;;;6.33;4.87;;;26.40;92.80;;;;;;5077219;28;20193;-83
2023/06/03 10:51:48;;;;;;;7.10;4.87;;;26.90;91.50;;;;;;5081957;28;20183;-81
2023/06/03 10:54:26;;;;;;;10.70;5.03;;;26.90;92.20;;;;;;5079855;28;20209;-83
2023/06/03 10:57:06;;;;;;;6.53;4.60;;;27.10;94.00;;;;;;5079383;28;20203;-83
2023/06/03 10:59:45;;;;;;;12.33;5.33;;;27.30;90.20;;;;;;5077455;28;21019;-81
2023/06/03 11:02:12;;;;;;;8.10;4.30;;;27.20;93.40;;;;;;5077183;28;20188;-85
2023/06/03 11:04:39;;;;;;;4.97;4.47;;;27.20;91.30;;;;;;5080141;28;20182;-82
2023/06/03 11:07:31;;;;;;;8.63;4.60;;;27.10;87.40;;;;;;5072964;28;20208;-84
2023/06/03 11:09:57;;;;;;;9.20;4.73;;;27.40;94.00;;;;;;5067774;28;20195;-84
2023/06/03 11:12:49;;;;;;;8.20;4.30;;;27.70;90.80;;;;;;5081575;28;20238;-87
2023/06/03 11:15:15;;;;;;;8.20;4.30;;;27.70;88.40;;;;;;5077016;28;20172;-83
2023/06/03 11:18:01;;;;;;;7.43;4.60;;;27.10;90.60;;;;;;5083483;28;20199;-84
2023/06/03 11:20:37;;;;;;;8.30;4.80;;;27.10;87.60;;;;;;5082976;28;20210;-81
2023/06/03 11:23:03;;;;;;;5.73;4.60;;;27.10;91.60;;;;;;5082319;28;21949;-81
2023/06/03 11:25:30;;;;;;;8.23;5.07;;;27.40;88.10;;;;;;5087095;28;20211;-82
2023/06/03 11:28:36;;;;;;;7.00;4.67;;;27.80;89.80;;;;;;5085467;28;20203;-82
2023/06/03 11:31:03;;;;;;;5.60;4.17;;;28.30;85.10;;;;;;5072894;28;20257;-82
2023/06/03 11:33:29;;;;;;;6.73;4.40;;;28.70;87.60;;;;;;5075963;28;20221;-81
2023/06/03 11:35:54;;;;;;;9.53;4.40;;;28.90;83.30;;;;;;5086879;28;20188;-80
2023/06/03 11:38:59;;;;;;;7.07;4.37;;;29.30;80.10;;;;;;5085056;28;20257;-82
2023/06/03 11:42:04;;;;;;;10.13;4.87;;;29.50;83.20;;;;;;5087059;28;20236;-81
2023/06/03 11:44:31;;;;;;;7.67;4.30;;;29.90;81.50;;;;;;5085069;28;20248;-81
2023/06/03 11:46:56;;;;;;;5.77;4.70;;;29.80;76.10;;;;;;5078615;28;20247;-80
2023/06/03 11:49:23;;;;;;;5.23;4.30;;;29.00;79.60;;;;;;5076157;28;20597;-81
2023/06/03 11:51:52;;;;;;;4.80;4.40;;;29.40;81.80;;;;;;5075094;28;20280;-82
2023/06/03 11:54:20;;;;;;;7.63;4.40;;;29.60;84.70;;;;;;5072373;28;20252;-81
2023/06/03 11:56:51;;;;;;;5.53;4.43;;;30.10;75.30;;;;;;5056782;28;20222;-84
2023/06/03 11:59:21;;;;;;;10.03;4.57;;;30.40;74.00;;;;;;5055630;28;20600;-83
2023/06/03 12:01:57;;;;;;;7.10;4.23;;;30.90;78.90;;;;;;5060368;28;20677;-81
2023/06/03 12:04:23;;;;;;;6.10;4.07;;;31.40;71.00;;;;;;5074301;28;20203;-82
2023/06/03 12:06:49;;;;;;;7.90;4.60;;;31.70;71.40;;;;;;5076886;28;20296;-79
2023/06/03 12:09:23;;;;;;;6.13;4.53;;;31.60;72.30;;;;;;5075529;28;20173;-82
2023/06/03 12:11:49;;;;;;;6.67;4.30;;;31.20;73.70;;;;;;5072722;28;20181;-81
2023/06/03 12:14:24;;;;;;;6.83;4.63;;;31.40;72.00;;;;;;5075867;28;20219;-81
2023/06/03 12:16:51;;;;;;;7.13;4.53;;;31.80;65.30;;;;;;5094028;28;20213;-80
2023/06/03 12:19:17;;;;;;;7.93;4.43;;;32.00;66.00;;;;;;5078737;28;20327;-81
2023/06/03 12:21:43;;;;;;;4.97;4.20;;;32.40;65.20;;;;;;5082404;28;20188;-84
2023/06/03 12:24:11;;;;;;;6.23;4.23;;;32.50;70.20;;;;;;5080960;28;20189;-82
2023/06/03 12:26:39;;;;;;;6.23;4.10;;;32.60;65.90;;;;;;5073794;28;20245;-84
2023/06/03 12:29:12;;;;;;;6.40;4.03;;;32.60;66.30;;;;;;5063281;28;20274;-85
2023/06/03 12:31:38;;;;;;;5.70;4.60;;;32.30;65.00;;;;;;5061665;28;20245;-84
2023/06/03 12:34:04;;;;;;;5.90;3.70;;;32.10;64.90;;;;;;5061805;28;20185;-83
2023/06/03 12:36:47;;;;;;;5.00;4.50;;;31.70;62.40;;;;;;5060606;28;20183;-84
2023/06/03 12:39:13;;;;;;;5.23;4.00;;;31.70;67.30;;;;;;5077330;28;20174;-83
2023/06/03 12:41:50;;;;;;;7.97;4.10;;;31.90;66.80;;;;;;5062113;28;20173;-83
2023/06/03 12:44:16;;;;;;;6.80;4.50;;;32.00;63.80;;;;;;5064182;28;20155;-84
2023/06/03 12:46:41;;;;;;;8.20;4.07;;;32.00;68.20;;;;;;5063336;28;20220;-85
2023/06/03 12:49:19;;;;;;;8.40;4.90;;;31.90;65.70;;;;;;5062296;28;20208;-83
2023/06/03 12:51:45;;;;;;;4.70;3.97;;;32.10;64.30;;;;;;5063220;28;20180;-82
2023/06/03 12:54:10;;;;;;;6.37;4.30;;;32.20;68.40;;;;;;5068721;28;20165;-83
2023/06/03 12:56:36;;;;;;;7.37;4.10;;;31.90;61.20;;;;;;5070404;28;20222;-83
2023/06/03 12:59:03;;;;;;;7.17;4.13;;;30.60;63.80;;;;;;5065331;28;20289;-83
2023/06/03 13:01:29;;;;;;;8.13;4.50;;;29.00;64.60;;;;;;5060919;28;20251;-83
2023/06/03 13:03:55;;;;;;;6.40;4.33;;;29.00;65.00;;;;;;5061947;28;20227;-83
2023/06/03 13:06:25;;;;;;;5.20;3.97;;;29.60;75.90;;;;;;5061937;28;20284;-84
2023/06/03 13:08:51;;;;;;;6.27;4.07;;;30.50;63.60;;;;;;5061206;28;20174;-83
2023/06/03 13:11:18;;;;;;;6.00;4.10;;;31.00;65.00;;;;;;5060241;28;20185;-84
2023/06/03 13:13:44;;;;;;;5.93;4.57;;;30.90;63.90;;;;;;5060025;28;20191;-83
2023/06/03 13:16:09;;;;;;;8.40;3.93;;;31.00;65.30;;;;;;5058304;28;20208;-84
2023/06/03 13:18:35;;;;;;;9.07;4.77;;;30.70;66.40;;;;;;5057800;28;20252;-84
2023/06/03 13:21:01;;;;;;;3.60;3.27;;;30.80;62.80;;;;;;5068815;28;20180;-84
2023/06/03 13:23:29;;;;;;;10.50;4.67;;;31.00;67.80;;;;;;5060934;28;20179;-84
2023/06/03 13:25:55;;;;;;;10.80;4.73;;;30.80;67.30;;;;;;5076121;28;20296;-84
2023/06/03 13:28:20;;;;;;;4.97;4.13;;;31.00;64.60;;;;;;5059569;28;20554;-84
2023/06/03 13:30:49;;;;;;;7.87;4.30;;;31.00;67.10;;;;;;5060801;28;20212;-84
2023/06/03 13:33:17;;;;;;;10.03;4.20;;;31.10;61.60;;;;;;5061924;28;20725;-84
2023/06/03 13:35:44;;;;;;;5.83;4.37;;;31.30;67.60;;;;;;5060079;28;20601;-84
2023/06/03 13:38:11;;;;;;;6.47;3.90;;;31.30;64.00;;;;;;5077060;28;20201;-82
2023/06/03 13:40:37;;;;;;;7.80;3.83;;;;;;;;;;5064509;28;20252;-83
2023/06/03 13:43:03;;;;;;;4.47;4.00;;;;;;;;;;5065532;28;20179;-83
2023/06/03 13:45:31;;;;;;;8.00;3.83;;;29.00;70.70;;;;;;5061132;28;20265;-83
2023/06/03 13:47:57;;;;;;;6.93;4.13;;;28.90;71.70;;;;;;5059219;28;20221;-84
2023/06/03 13:50:23;;;;;;;7.13;4.20;;;29.40;67.50;;;;;;5059025;28;20190;-84
2023/06/03 13:52:49;;;;;;;6.80;4.37;;;29.10;66.10;;;;;;5059106;28;20199;-83
2023/06/03 13:55:14;;;;;;;7.20;3.60;;;29.30;64.20;;;;;;5058682;28;20283;-83
2023/06/03 13:57:40;;;;;;;6.73;4.17;;;29.40;66.40;;;;;;5058227;28;20209;-83
2023/06/03 14:00:06;;;;;;;6.70;3.67;;;29.40;66.90;;;;;;5058511;28;20602;-83
2023/06/03 14:02:32;;;;;;;5.43;4.30;;;29.60;65.70;;;;;;5058774;28;20190;-83
2023/06/03 14:04:58;;;;;;;6.90;4.00;;;29.70;65.60;;;;;;5058988;28;20243;-84
2023/06/03 14:07:24;;;;;;;4.70;4.00;;;30.00;65.40;;;;;;5059751;28;20202;-84
2023/06/03 14:09:50;;;;;;;7.37;4.20;;;29.80;63.50;;;;;;5061238;28;20231;-83
2023/06/03 14:12:15;;;;;;;6.23;4.00;;;29.70;67.00;;;;;;5058703;28;20651;-77
2023/06/03 14:14:44;;;;;;;6.43;3.77;;;28.90;64.00;;;;;;5056068;28;20177;-77
2023/06/03 14:17:10;;;;;;;5.27;3.63;;;27.50;65.40;;;;;;5057537;28;20215;-79
2023/06/03 14:19:36;;;;;;;7.77;4.33;;;26.90;70.90;;;;;;5058537;28;20175;-79
2023/06/03 14:22:02;;;;;;;5.43;3.70;;;27.30;74.60;;;;;;5063175;28;20175;-77
2023/06/03 14:24:28;;;;;;;5.80;3.97;;;28.00;71.40;;;;;;5064922;28;20188;-78
2023/06/03 14:26:54;;;;;;;6.20;4.40;;;28.50;69.40;;;;;;5062746;28;20313;-78
2023/06/03 14:29:20;;;;;;;4.13;3.63;;;28.30;67.30;;;;;;5073538;28;20241;-79
2023/06/03 14:31:46;;;;;;;5.30;3.77;;;28.00;65.60;;;;;;5058492;28;20176;-78
2023/06/03 14:34:12;;;;;;;6.63;3.90;;;28.20;69.70;;;;;;5059975;28;20226;-79
2023/06/03 14:36:38;;;;;;;7.67;4.10;;;28.40;68.90;;;;;;5058259;28;20228;-79
2023/06/03 14:39:05;;;;;;;5.37;3.80;;;28.90;70.00;;;;;;5074684;28;20673;-79
2023/06/03 14:41:31;;;;;;;6.27;4.17;;;28.50;65.10;;;;;;5057957;28;20641;-79
2023/06/03 14:43:58;;;;;;;7.07;3.80;;;27.40;65.00;;;;;;5058189;28;20233;-77
2023/06/03 14:46:24;;;;;;;9.33;3.87;;;25.60;72.00;;;;;;5058074;28;20204;-78
2023/06/03 14:48:50;;;;;;;5.87;4.27;;;25.60;73.70;;;;;;5062225;28;20183;-79
2023/06/03 14:51:15;;;;;;;5.67;4.03;;;26.50;70.30;;;;;;5078701;28;20172;-82
2023/06/03 14:53:41;;;;;;;8.67;4.30;;;27.50;68.80;;;;;;5074637;28;20177;-77
2023/06/03 14:56:07;;;;;;;4.57;4.10;;;27.30;68.20;;;;;;5075881;28;20536;-77
2023/06/03 14:58:33;;;;;;;7.27;4.50;;;26.50;69.20;;;;;;5075473;28;20201;-77
2023/06/03 15:00:58;;;;;;;5.80;4.63;;;25.70;70.10;;;;;;5077845;28;20181;-79
2023/06/03 15:03:24;;;;;;;5.40;4.07;;;25.00;70.70;;;;;;5075970;28;20523;-78
2023/06/03 15:05:50;;;;;;;4.40;4.00;;;25.60;71.20;;;;;;5076527;28;20209;-80
2023/06/03 15:08:16;;;;;;;5.43;4.10;;;26.40;69.90;;;;;;5078442;28;20266;-80
2023/06/03 15:10:42;;;;;;;6.97;3.83;;;25.90;69.20;;;;;;5078224;28;20569;-79
2023/06/03 15:13:08;;;;;;;5.80;4.20;;;26.00;74.20;;;;;;5079034;28;20173;-78
2023/06/03 15:15:34;;;;;;;6.53;4.40;;;26.80;68.90;;;;;;5078220;28;20188;-80
2023/06/03 15:17:59;;;;;;;6.87;4.13;;;27.40;67.80;;;;;;5079052;28;20224;-83
2023/06/03 15:20:26;;;;;;;7.73;3.97;;;27.80;70.00;;;;;;5078192;28;20231;-79
2023/06/03 15:22:52;;;;;;;8.93;5.40;;;28.10;67.30;;;;;;5079294;28;20169;-78
2023/06/03 15:25:17;;;;;;;6.37;4.37;;;28.20;67.10;;;;;;5079123;28;20205;-79
2023/06/03 15:27:43;;;;;;;6.00;4.33;;;28.70;67.20;;;;;;5077364;28;20228;-79
2023/06/03 15:30:09;;;;;;;6.80;4.20;;;28.70;65.30;;;;;;5077521;28;20648;-79
2023/06/03 15:32:36;;;;;;;6.47;4.23;;;28.80;66.50;;;;;;5076004;28;20630;-79
2023/06/03 15:35:03;;;;;;;7.87;4.30;;;28.90;69.30;;;;;;5076283;28;20628;-79
2023/06/03 15:37:29;;;;;;;10.63;4.20;;;28.80;66.50;;;;;;5078676;28;20187;-79
2023/06/03 15:39:55;;;;;;;11.80;3.70;;;28.40;64.60;;;;;;5077533;28;20530;-78
2023/06/03 15:42:20;;;;;;;5.27;3.93;;;27.90;65.80;;;;;;5077878;28;20175;-79
2023/06/03 15:44:46;;;;;;;6.43;4.27;;;27.70;69.00;;;;;;5080379;28;20618;-83
2023/06/03 15:47:12;;;;;;;9.33;4.37;;;27.50;68.80;;;;;;5081493;28;20246;-84
2023/06/03 15:49:37;;;;;;;7.00;4.20;;;27.50;65.20;;;;;;5085465;28;20175;-83
2023/06/03 15:52:03;;;;;;;6.17;3.73;;;27.20;65.30;;;;;;5085357;28;20176;-84
2023/06/03 15:54:29;;;;;;;6.27;3.77;;;26.50;68.00;;;;;;5084953;28;20177;-81
2023/06/03 15:56:55;;;;;;;5.97;4.00;;;26.20;67.10;;;;;;5088272;28;20231;-85
2023/06/03 15:59:21;;;;;;;4.80;3.70;;;26.30;69.10;;;;;;5100398;28;20240;-85
2023/06/03 16:01:47;;;;;;;5.83;4.00;;;26.40;66.60;;;;;;5098505;28;20203;-83
2023/06/03 16:04:13;;;;;;;4.50;3.57;;;26.20;68.40;;;;;;5081773;28;20584;-83
2023/06/03 16:06:39;;;;;;;5.17;4.00;;;26.10;67.10;;;;;;5082254;28;20300;-81
2023/06/03 16:09:07;;;;;;;5.77;3.77;;;26.10;68.60;;;;;;5080145;28;20634;-82
2023/06/03 16:11:32;;;;;;;10.87;4.50;;;26.10;71.20;;;;;;5080832;28;20297;-83
2023/06/03 16:13:58;;;;;;;11.03;4.23;;;25.90;68.30;;;;;;5080450;28;20653;-81
2023/06/03 16:16:24;;;;;;;13.43;4.33;;;25.50;70.10;;;;;;5080450;28;20188;-80
2023/06/03 16:18:50;;;;;;;5.77;4.00;;;25.50;71.10;;;;;;5079897;28;20589;-82
2023/06/03 16:21:16;;;;;;;8.50;4.20;;;25.00;70.50;;;;;;5080077;28;20177;-81
2023/06/03 16:23:42;;;;;;;6.23;4.40;;;24.50;70.00;;;;;;5080530;28;20234;-81
2023/06/03 16:26:08;;;;;;;8.43;4.43;;;23.80;71.30;;;;;;5080138;28;20217;-82
2023/06/03 16:28:34;;;;;;;7.93;3.93;;;23.80;72.00;;;;;;5081684;28;20632;-82
2023/06/03 16:30:59;;;;;;;9.17;4.30;;;23.50;71.50;;;;;;5082773;28;20180;-79
2023/06/03 16:33:25;;;;;;;5.67;3.93;;;23.30;73.80;;;;;;5082980;28;20210;-85
2023/06/03 16:35:51;;;;;;;8.63;4.80;;;22.80;72.90;;;;;;5082277;28;20178;-85
2023/06/03 16:38:18;;;;;;;7.83;4.50;;;22.40;74.30;;;;;;5081514;28;20677;-85
2023/06/03 16:40:44;;;;;;;6.50;4.73;;;22.10;76.40;;;;;;5081696;28;20188;-86
2023/06/03 16:43:09;;;;;;;10.57;4.13;;;21.70;75.20;;;;;;5082000;28;20641;-86
2023/06/03 16:45:35;;;;;;;8.50;4.27;;;21.60;75.80;;;;;;5081623;28;20207;-86
2023/06/03 16:48:01;;;;;;;6.13;4.03;;;21.50;76.40;;;;;;5080240;28;20195;-86
2023/06/03 16:50:26;;;;;;;6.13;4.37;;;21.40;76.90;;;;;;5081933;28;20528;-86
2023/06/03 16:52:56;;;;;;;8.13;4.37;;;21.30;77.30;;;;;;5081327;28;20215;-86
2023/06/03 16:55:22;;;;;;;5.70;4.03;;;21.10;77.00;;;;;;5082419;28;20173;-86
2023/06/03 16:57:48;;;;;;;6.27;4.30;;;21.00;77.50;;;;;;5081538;28;20699;-86
2023/06/03 17:00:16;;;;;;;7.97;4.40;;;20.90;79.70;;;;;;5078118;28;20186;-86
2023/06/03 17:02:42;;;;;;;5.97;4.07;;;20.80;78.50;;;;;;5078813;28;20211;-84
2023/06/03 17:05:07;;;;;;;7.20;4.47;;;20.80;78.40;;;;;;5081806;28;20175;-85
2023/06/03 17:07:33;;;;;;;6.70;4.37;;;20.70;77.70;;;;;;5081209;28;20208;-84
2023/06/03 17:09:59;;;;;;;8.20;4.53;;;20.60;77.00;;;;;;5081826;28;20657;-85
2023/06/03 17:12:24;;;;;;;5.63;4.23;;;20.60;77.60;;;;;;5080938;28;20687;-85
2023/06/03 17:14:50;;;;;;;5.00;3.87;;;20.50;77.70;;;;;;5081790;28;20174;-85
2023/06/03 17:17:17;;;;;;;5.83;4.90;;;20.50;78.30;;;;;;5081165;28;20305;-85
2023/06/03 17:58:05;;;;;;;14.30;5.70;;;19.60;81.90;;;;;;5137569;27;20294;-86
2023/06/03 18:23:20;;;;;;;9.43;4.30;;;19.00;85.70;;;;;;5136388;27;20273;-85
